Time;durP1;ratioP1;P1;durP2;ratioP2;P2;SDS_P1;SDS_P2;PMS_P1;PMS_P2;Temp;Humidity;BMP_temperature;BMP_pressure;BME280_temperature;BME280_humidity;BME280_pressure;Samples;Min_cycle;Max_cycle;Signal;HPM_P1;HPM_P2
2022/03/14 00:00:43;;;;;;;19.88;14.00;;;-1.70;89.60;;;;;;5010499;28;20112;-54
2022/03/14 00:03:10;;;;;;;19.75;12.57;;;-1.70;89.80;;;;;;5009885;28;20036;-56
2022/03/14 00:05:36;;;;;;;16.23;11.98;;;-1.70;89.30;;;;;;5010064;28;20026;-55
2022/03/14 00:08:02;;;;;;;21.02;14.13;;;-1.70;89.00;;;;;;5009739;28;20037;-55
2022/03/14 00:10:28;;;;;;;19.02;12.30;;;-1.70;88.80;;;;;;5008485;28;20034;-55
2022/03/14 00:12:56;;;;;;;19.15;13.10;;;-1.70;88.50;;;;;;5009856;28;20381;-55
2022/03/14 00:15:23;;;;;;;21.23;13.55;;;-1.70;88.10;;;;;;5009246;28;20033;-56
2022/03/14 00:17:49;;;;;;;18.75;13.57;;;-1.80;88.50;;;;;;5011223;28;20127;-54
2022/03/14 00:20:15;;;;;;;20.48;13.30;;;-1.80;89.00;;;;;;5001606;28;20049;-55
2022/03/14 00:22:44;;;;;;;22.80;13.02;;;-1.90;90.00;;;;;;5008436;28;20417;-57
2022/03/14 00:25:10;;;;;;;17.77;11.82;;;-1.90;89.30;;;;;;5009710;28;20032;-57
2022/03/14 00:27:36;;;;;;;19.77;13.90;;;-2.00;89.70;;;;;;5009561;28;20034;-56
2022/03/14 00:30:08;;;;;;;19.92;13.05;;;-2.00;90.00;;;;;;5010768;28;20033;-56
2022/03/14 00:32:34;;;;;;;21.40;13.63;;;-2.00;90.40;;;;;;5008439;28;20452;-57
2022/03/14 00:35:01;;;;;;;18.55;13.43;;;-2.00;90.80;;;;;;5009506;28;20393;-56
2022/03/14 00:37:26;;;;;;;19.35;12.70;;;-2.10;90.80;;;;;;5009183;28;20084;-55
2022/03/14 00:39:53;;;;;;;23.38;14.25;;;-2.10;91.30;;;;;;5009484;28;20030;-55
2022/03/14 00:42:21;;;;;;;17.42;12.82;;;-2.10;91.50;;;;;;5009590;28;20033;-56
2022/03/14 00:44:49;;;;;;;15.07;11.60;;;-2.20;91.60;;;;;;5009711;28;20018;-56
2022/03/14 00:47:16;;;;;;;20.80;13.27;;;-2.10;91.50;;;;;;5010027;28;20049;-54
2022/03/14 00:49:42;;;;;;;25.00;13.05;;;-2.20;91.70;;;;;;5009228;28;20823;-57
2022/03/14 00:52:08;;;;;;;16.63;12.07;;;-2.20;91.90;;;;;;5008301;28;20057;-58
2022/03/14 00:54:34;;;;;;;19.80;11.35;;;-2.20;91.60;;;;;;5008902;28;20033;-57
2022/03/14 00:57:00;;;;;;;16.35;11.65;;;-2.20;91.00;;;;;;5009873;28;20025;-55
2022/03/14 00:59:27;;;;;;;17.77;11.65;;;-2.20;91.00;;;;;;5009580;28;20037;-54
2022/03/14 01:01:53;;;;;;;20.73;11.07;;;-2.20;91.10;;;;;;5007949;28;20075;-57
2022/03/14 01:04:19;;;;;;;22.98;13.25;;;-2.30;91.30;;;;;;5009302;28;20092;-56
2022/03/14 01:06:45;;;;;;;18.58;12.00;;;-2.30;91.60;;;;;;5023528;28;20037;-58
2022/03/14 01:09:11;;;;;;;20.35;12.93;;;-2.40;91.90;;;;;;5009367;28;20464;-59
2022/03/14 01:11:38;;;;;;;19.52;12.68;;;-2.50;92.50;;;;;;5009390;28;20559;-57
2022/03/14 01:14:04;;;;;;;21.88;13.00;;;-2.50;93.10;;;;;;4991001;28;20105;-56
2022/03/14 01:16:31;;;;;;;18.80;12.05;;;-2.60;93.40;;;;;;5009595;28;20026;-56
2022/03/14 01:18:57;;;;;;;23.00;12.77;;;-2.60;93.50;;;;;;5008645;28;20051;-57
2022/03/14 01:21:24;;;;;;;20.80;13.10;;;-2.60;93.70;;;;;;5008594;28;20026;-58
2022/03/14 01:23:50;;;;;;;20.40;12.63;;;-2.50;94.00;;;;;;5008582;28;20484;-56
2022/03/14 01:26:15;;;;;;;19.85;12.35;;;-2.50;93.90;;;;;;5008759;28;20114;-57
2022/03/14 01:28:41;;;;;;;20.92;14.00;;;-2.50;94.10;;;;;;5008856;28;20022;-57
2022/03/14 01:31:07;;;;;;;16.30;12.30;;;-2.50;94.30;;;;;;5008331;28;20022;-57
2022/03/14 01:33:34;;;;;;;20.10;12.68;;;-2.50;94.50;;;;;;5009036;28;20089;-57
2022/03/14 01:35:59;;;;;;;24.38;14.32;;;-2.50;94.30;;;;;;5008209;28;20030;-56
2022/03/14 01:38:25;;;;;;;21.08;13.07;;;-2.60;94.90;;;;;;5008557;28;20034;-56
2022/03/14 01:40:51;;;;;;;16.08;12.63;;;-2.60;95.30;;;;;;5007842;28;20097;-54
2022/03/14 01:43:17;;;;;;;24.90;12.77;;;-2.60;95.90;;;;;;5008680;28;20061;-55
2022/03/14 01:45:46;;;;;;;22.83;13.27;;;-2.50;95.80;;;;;;5008230;28;20392;-56
2022/03/14 01:48:12;;;;;;;20.52;14.07;;;-2.60;95.70;;;;;;5008000;28;20532;-58
2022/03/14 01:50:38;;;;;;;21.15;13.15;;;-2.60;96.40;;;;;;5008101;28;20034;-57
2022/03/14 01:53:04;;;;;;;25.88;12.98;;;-2.60;96.60;;;;;;5006053;28;20029;-56
2022/03/14 01:55:30;;;;;;;18.77;12.77;;;-2.60;97.10;;;;;;5007680;28;20049;-55
2022/03/14 01:57:56;;;;;;;22.25;13.13;;;-2.70;96.90;;;;;;5007849;28;20030;-57
2022/03/14 02:00:22;;;;;;;19.83;12.45;;;-2.70;97.70;;;;;;5007964;28;20038;-56
2022/03/14 02:02:48;;;;;;;20.25;12.00;;;-2.80;97.50;;;;;;5008788;28;20397;-55
2022/03/14 02:05:15;;;;;;;15.75;11.93;;;-2.80;97.50;;;;;;5010266;28;20145;-55
2022/03/14 02:07:40;;;;;;;21.05;13.02;;;-2.90;97.70;;;;;;5012579;28;20149;-55
2022/03/14 02:10:07;;;;;;;16.83;12.77;;;-2.90;98.80;;;;;;5012170;28;20030;-57
2022/03/14 02:12:33;;;;;;;17.80;12.10;;;-2.90;98.70;;;;;;5011862;28;20065;-54
2022/03/14 02:14:59;;;;;;;18.83;12.40;;;-2.90;98.70;;;;;;5011837;28;20053;-58
2022/03/14 02:17:24;;;;;;;20.13;12.20;;;-2.90;98.70;;;;;;5012613;28;20036;-58
2022/03/14 02:19:51;;;;;;;17.58;11.88;;;-2.80;98.40;;;;;;5012335;28;20062;-55
2022/03/14 02:22:17;;;;;;;20.77;11.55;;;-2.80;98.90;;;;;;5011467;28;20080;-57
2022/03/14 02:24:45;;;;;;;21.35;12.60;;;-2.80;98.40;;;;;;5011418;28;20033;-56
2022/03/14 02:27:14;;;;;;;17.92;12.20;;;-2.80;98.30;;;;;;5011341;28;20628;-57
2022/03/14 02:29:41;;;;;;;17.45;12.40;;;-2.80;98.30;;;;;;5012435;28;20076;-56
2022/03/14 02:32:09;;;;;;;16.55;11.82;;;-2.80;98.40;;;;;;5011121;28;20034;-58
2022/03/14 02:34:35;;;;;;;19.17;12.00;;;-2.80;98.00;;;;;;5011022;28;20061;-58
2022/03/14 02:37:02;;;;;;;18.15;12.57;;;-2.90;98.00;;;;;;5011369;28;20030;-55
2022/03/14 02:39:28;;;;;;;17.90;11.65;;;-2.90;98.10;;;;;;5011396;28;20026;-57
2022/03/14 02:41:54;;;;;;;20.35;11.68;;;-2.90;98.40;;;;;;5012343;28;20021;-56
2022/03/14 02:44:20;;;;;;;19.23;12.52;;;-2.90;98.20;;;;;;5010601;28;20034;-56
2022/03/14 02:46:45;;;;;;;18.70;12.70;;;-2.90;98.00;;;;;;5011874;28;20030;-58
2022/03/14 02:49:12;;;;;;;17.50;12.15;;;-3.00;98.50;;;;;;5011371;28;20033;-56
2022/03/14 02:51:38;;;;;;;16.98;12.90;;;-3.00;99.00;;;;;;5011200;28;20037;-58
2022/03/14 02:54:13;;;;;;;22.35;12.25;;;-3.00;99.90;;;;;;5011621;28;20029;-57
2022/03/14 02:56:40;;;;;;;23.67;12.27;;;-3.00;99.90;;;;;;5010654;28;20111;-56
2022/03/14 02:59:07;;;;;;;17.55;12.15;;;-3.00;99.90;;;;;;5010672;28;20115;-56
2022/03/14 03:01:34;;;;;;;20.98;13.45;;;-3.00;99.80;;;;;;5008849;28;20033;-55
2022/03/14 03:04:00;;;;;;;21.08;13.35;;;-3.10;99.60;;;;;;5010263;28;20045;-57
2022/03/14 03:06:26;;;;;;;23.23;14.02;;;-3.10;99.90;;;;;;5010039;28;20034;-56
2022/03/14 03:08:54;;;;;;;22.35;12.40;;;-3.20;99.90;;;;;;5010118;28;20022;-57
2022/03/14 03:11:21;;;;;;;16.50;11.63;;;-3.20;99.90;;;;;;5010435;28;20037;-56
2022/03/14 03:13:48;;;;;;;24.00;11.57;;;-3.30;99.90;;;;;;5009166;28;20038;-56
2022/03/14 03:16:16;;;;;;;17.40;12.73;;;-3.40;99.90;;;;;;5008109;28;20084;-56
2022/03/14 03:18:43;;;;;;;18.80;12.23;;;-3.40;99.90;;;;;;5009343;28;20130;-58
2022/03/14 03:21:09;;;;;;;19.15;12.48;;;-3.40;99.90;;;;;;5010019;28;20029;-56
2022/03/14 03:23:35;;;;;;;24.88;12.48;;;-3.40;99.90;;;;;;5010663;28;20026;-56
2022/03/14 03:26:02;;;;;;;16.13;12.18;;;-3.50;99.90;;;;;;5008654;28;20072;-56
2022/03/14 03:28:29;;;;;;;16.20;12.38;;;-3.50;99.90;;;;;;5009378;28;20084;-58
2022/03/14 03:30:54;;;;;;;21.15;12.88;;;-3.50;99.90;;;;;;5008780;28;20049;-58
2022/03/14 03:33:20;;;;;;;17.70;13.07;;;-3.50;99.90;;;;;;5009724;28;20105;-55
2022/03/14 03:35:45;;;;;;;15.07;11.80;;;-3.50;99.90;;;;;;5009404;28;20025;-56
2022/03/14 03:38:11;;;;;;;24.73;13.18;;;-3.50;99.90;;;;;;5009129;28;20046;-57
2022/03/14 03:40:37;;;;;;;16.95;11.85;;;-3.50;99.90;;;;;;5009892;28;20033;-58
2022/03/14 03:43:02;;;;;;;16.95;11.13;;;-3.50;99.90;;;;;;5008782;28;20064;-55
2022/03/14 03:45:28;;;;;;;16.30;11.60;;;-3.50;99.90;;;;;;5009639;28;20053;-54
2022/03/14 03:47:54;;;;;;;15.73;11.35;;;-3.50;99.90;;;;;;5008996;28;20030;-56
2022/03/14 03:50:20;;;;;;;19.35;12.63;;;-3.50;99.90;;;;;;5010217;28;20022;-55
2022/03/14 03:52:45;;;;;;;29.42;14.88;;;-3.40;99.90;;;;;;5008657;28;20448;-56
2022/03/14 03:55:11;;;;;;;31.23;16.33;;;-3.50;99.90;;;;;;5007985;28;20049;-58
2022/03/14 03:57:37;;;;;;;22.55;13.27;;;-3.50;99.90;;;;;;5007975;28;20117;-57
2022/03/14 04:00:04;;;;;;;21.02;13.45;;;-3.50;99.90;;;;;;4971209;28;1104709;-55
2022/03/14 04:02:35;;;;;;;58.55;22.13;;;-3.60;99.90;;;;;;5010394;28;20037;-58
2022/03/14 04:05:02;;;;;;;21.45;13.88;;;-3.50;99.90;;;;;;5009522;28;20725;-57
2022/03/14 04:07:27;;;;;;;20.92;11.48;;;-3.50;99.90;;;;;;5010086;28;20030;-57
2022/03/14 04:09:56;;;;;;;20.23;12.68;;;-3.40;99.90;;;;;;5010078;28;20141;-57
2022/03/14 04:12:26;;;;;;;22.60;12.70;;;-3.30;99.90;;;;;;5008678;28;20153;-57
2022/03/14 04:14:59;;;;;;;19.65;11.98;;;-3.30;99.90;;;;;;5010616;28;20053;-55
2022/03/14 04:17:25;;;;;;;19.20;12.27;;;-3.20;99.90;;;;;;4991825;28;20049;-56
2022/03/14 04:19:52;;;;;;;20.58;12.60;;;-3.20;99.90;;;;;;5009835;28;20034;-55
2022/03/14 04:22:21;;;;;;;16.30;11.05;;;-3.20;99.90;;;;;;5009188;28;20096;-59
2022/03/14 04:24:47;;;;;;;19.17;11.55;;;-3.20;99.90;;;;;;5009173;28;20390;-55
2022/03/14 04:27:12;;;;;;;19.02;11.00;;;-3.20;99.90;;;;;;5008545;28;20048;-55
2022/03/14 04:29:38;;;;;;;17.92;11.68;;;-3.20;99.90;;;;;;5008897;28;20480;-56
2022/03/14 04:32:04;;;;;;;19.50;10.95;;;-3.20;99.90;;;;;;5009359;28;20038;-56
2022/03/14 04:34:30;;;;;;;15.93;11.85;;;-3.20;99.90;;;;;;5008602;28;20041;-56
2022/03/14 04:36:57;;;;;;;22.35;11.75;;;-3.30;99.90;;;;;;5008584;28;20905;-56
2022/03/14 04:39:23;;;;;;;23.42;12.18;;;-3.30;99.90;;;;;;5009188;28;20026;-56
2022/03/14 04:41:49;;;;;;;25.10;14.07;;;-3.30;99.90;;;;;;5007484;28;20366;-54
2022/03/14 04:44:16;;;;;;;29.15;14.20;;;-3.30;99.90;;;;;;5009956;28;20041;-56
2022/03/14 04:46:42;;;;;;;19.05;11.18;;;-3.30;99.90;;;;;;5007812;28;20034;-56
2022/03/14 04:49:13;;;;;;;15.63;11.43;;;-3.30;99.90;;;;;;4991970;28;20041;-55
2022/03/14 04:51:39;;;;;;;18.83;11.93;;;-3.30;99.90;;;;;;5007906;28;20409;-58
2022/03/14 04:54:05;;;;;;;19.88;10.48;;;-3.30;99.90;;;;;;5009543;28;20022;-58
2022/03/14 04:56:31;;;;;;;15.32;11.13;;;-3.30;99.90;;;;;;5010138;28;20172;-56
2022/03/14 04:58:56;;;;;;;19.00;11.75;;;-3.30;99.90;;;;;;5008689;28;20041;-55
2022/03/14 05:01:23;;;;;;;15.82;9.93;;;-3.30;99.90;;;;;;5009179;28;20037;-55
2022/03/14 05:03:52;;;;;;;14.52;10.82;;;-3.30;99.90;;;;;;5008049;28;20420;-55
2022/03/14 05:06:21;;;;;;;18.10;12.18;;;-3.20;99.90;;;;;;5008946;28;20488;-56
2022/03/14 05:08:47;;;;;;;13.38;11.05;;;-3.20;99.90;;;;;;5009100;28;20148;-55
2022/03/14 05:11:14;;;;;;;16.98;11.55;;;-3.20;99.90;;;;;;5009556;28;20113;-57
2022/03/14 05:13:41;;;;;;;13.90;10.60;;;-3.10;99.90;;;;;;5009443;28;20037;-55
2022/03/14 05:16:07;;;;;;;14.85;10.77;;;-3.10;99.90;;;;;;5006840;28;20141;-54
2022/03/14 05:18:32;;;;;;;13.73;9.90;;;-3.10;99.90;;;;;;5009054;28;20076;-57
2022/03/14 05:20:58;;;;;;;16.10;11.50;;;-3.10;99.90;;;;;;5007757;28;20034;-58
2022/03/14 05:23:24;;;;;;;16.35;11.15;;;-3.00;99.90;;;;;;5010032;28;20029;-56
2022/03/14 05:25:50;;;;;;;18.67;12.30;;;-3.00;99.90;;;;;;5007939;28;20029;-56
2022/03/14 05:28:16;;;;;;;14.88;10.82;;;-3.00;99.90;;;;;;5008581;28;20040;-57
2022/03/14 05:30:41;;;;;;;17.90;11.77;;;-2.90;99.90;;;;;;5008097;28;20061;-55
2022/03/14 05:33:07;;;;;;;22.55;10.57;;;-2.80;99.90;;;;;;5008127;28;20511;-55
2022/03/14 05:35:33;;;;;;;15.10;11.13;;;-2.70;99.90;;;;;;5008657;28;20128;-56
2022/03/14 05:37:58;;;;;;;16.08;11.32;;;-2.60;99.90;;;;;;5014034;28;20041;-56
2022/03/14 05:40:24;;;;;;;19.63;12.68;;;-2.50;99.90;;;;;;5009100;28;20103;-56
2022/03/14 05:42:50;;;;;;;16.48;10.80;;;-2.40;99.90;;;;;;5008558;28;20022;-56
2022/03/14 05:45:17;;;;;;;17.90;11.07;;;-2.30;99.90;;;;;;5008120;28;20018;-55
2022/03/14 05:47:44;;;;;;;19.30;11.90;;;-2.20;99.90;;;;;;5008047;28;20516;-54
2022/03/14 05:50:10;;;;;;;14.10;10.82;;;-2.10;99.90;;;;;;5007032;28;20034;-55
2022/03/14 05:52:36;;;;;;;14.43;11.80;;;-2.10;99.90;;;;;;5008199;28;20028;-55
2022/03/14 05:55:02;;;;;;;15.60;10.27;;;-2.00;99.90;;;;;;5007498;28;20030;-57
2022/03/14 05:57:30;;;;;;;18.75;11.50;;;-2.00;99.90;;;;;;5007783;28;20370;-56
2022/03/14 05:59:56;;;;;;;20.02;11.68;;;-2.00;99.90;;;;;;5006838;28;20819;-57
2022/03/14 06:02:23;;;;;;;25.20;12.45;;;-2.10;99.90;;;;;;5007619;28;20025;-56
2022/03/14 06:04:50;;;;;;;15.18;10.68;;;-2.10;99.90;;;;;;5007702;28;20037;-57
2022/03/14 06:07:19;;;;;;;15.52;10.23;;;-2.10;99.90;;;;;;5007422;28;20034;-55
2022/03/14 06:09:48;;;;;;;17.20;10.95;;;-2.00;99.90;;;;;;5008224;28;20084;-58
2022/03/14 06:12:28;;;;;;;18.45;9.98;;;-2.00;99.90;;;;;;5007345;28;20026;-56
2022/03/14 06:15:03;;;;;;;18.45;12.35;;;-1.90;99.90;;;;;;5007530;28;20022;-57
2022/03/14 06:17:29;;;;;;;19.95;11.00;;;-1.80;99.90;;;;;;5007484;28;20030;-57
2022/03/14 06:19:55;;;;;;;17.30;11.50;;;-1.70;99.90;;;;;;5008490;28;20030;-57
2022/03/14 06:22:22;;;;;;;17.95;11.35;;;-1.60;99.90;;;;;;5007471;28;20045;-57
2022/03/14 06:24:49;;;;;;;17.92;12.25;;;-1.50;99.90;;;;;;5009562;28;20030;-57
2022/03/14 06:27:15;;;;;;;26.92;11.82;;;-1.30;99.90;;;;;;5007333;28;20034;-55
2022/03/14 06:29:42;;;;;;;19.48;13.18;;;-1.20;99.90;;;;;;5007653;28;20101;-57
2022/03/14 06:32:08;;;;;;;20.25;13.18;;;-1.10;99.90;;;;;;5006676;28;20038;-58
2022/03/14 06:34:34;;;;;;;41.03;24.55;;;-1.00;99.90;;;;;;5007508;28;20026;-55
2022/03/14 06:37:00;;;;;;;30.63;17.88;;;-1.00;98.80;;;;;;5008259;28;20034;-57
2022/03/14 06:39:25;;;;;;;33.67;16.73;;;-1.00;99.30;;;;;;5007766;28;20022;-56
2022/03/14 06:41:51;;;;;;;25.20;15.35;;;-0.90;99.20;;;;;;5008223;28;20025;-55
2022/03/14 06:44:19;;;;;;;30.88;15.25;;;-0.80;99.20;;;;;;5008246;28;20034;-58
2022/03/14 06:46:44;;;;;;;39.15;15.82;;;-0.80;99.20;;;;;;5008796;28;20034;-54
2022/03/14 06:49:13;;;;;;;27.40;14.95;;;-0.70;99.40;;;;;;5007240;28;20059;-56
2022/03/14 06:51:40;;;;;;;25.17;14.88;;;-0.50;99.00;;;;;;5009631;28;20054;-55
2022/03/14 06:54:05;;;;;;;23.08;15.55;;;-0.40;98.50;;;;;;5012042;28;20018;-56
2022/03/14 06:56:31;;;;;;;23.95;12.98;;;-0.40;97.10;;;;;;5012212;28;20048;-56
2022/03/14 06:58:57;;;;;;;23.83;12.35;;;-0.20;98.00;;;;;;5011489;28;20034;-56
2022/03/14 07:01:24;;;;;;;17.75;11.73;;;-0.20;99.90;;;;;;5011018;28;20034;-57
2022/03/14 07:03:50;;;;;;;13.88;10.43;;;-0.20;98.80;;;;;;5011729;28;20467;-58
2022/03/14 07:06:16;;;;;;;13.82;10.40;;;-0.10;98.10;;;;;;5011822;28;20492;-56
2022/03/14 07:08:42;;;;;;;21.95;13.27;;;0.00;96.70;;;;;;5011875;28;20112;-56
2022/03/14 07:11:07;;;;;;;20.00;13.10;;;0.00;97.10;;;;;;5011678;28;20160;-56
2022/03/14 07:13:34;;;;;;;17.77;12.52;;;0.20;97.00;;;;;;5010410;28;20126;-57
2022/03/14 07:15:59;;;;;;;18.92;13.65;;;0.40;97.50;;;;;;5026063;28;20041;-55
2022/03/14 07:18:25;;;;;;;17.23;13.25;;;0.60;96.90;;;;;;5010483;28;20030;-56
2022/03/14 07:20:50;;;;;;;17.67;11.80;;;0.70;96.40;;;;;;5007129;28;20085;-56
2022/03/14 07:23:16;;;;;;;15.93;10.70;;;0.90;95.40;;;;;;5010845;28;20041;-56
2022/03/14 07:25:42;;;;;;;15.50;11.18;;;1.00;95.40;;;;;;5010803;28;20492;-55
2022/03/14 07:28:09;;;;;;;18.77;9.85;;;1.20;97.30;;;;;;5010999;28;20050;-56
2022/03/14 07:30:38;;;;;;;14.55;10.93;;;1.10;97.30;;;;;;5010508;28;20022;-56
2022/03/14 07:33:04;;;;;;;14.90;11.15;;;1.20;98.30;;;;;;5002956;28;20029;-56
2022/03/14 07:35:30;;;;;;;18.30;12.45;;;1.10;98.20;;;;;;5011945;28;20037;-55
2022/03/14 07:37:56;;;;;;;16.45;12.13;;;1.10;98.80;;;;;;5010182;28;20030;-56
2022/03/14 07:40:23;;;;;;;17.80;11.90;;;1.10;97.60;;;;;;5010767;28;20057;-55
2022/03/14 07:42:51;;;;;;;15.52;12.25;;;0.90;98.00;;;;;;5009807;28;20037;-56
2022/03/14 07:45:20;;;;;;;20.55;12.35;;;0.90;97.90;;;;;;5011036;28;20087;-57
2022/03/14 07:47:46;;;;;;;21.17;13.05;;;0.90;98.50;;;;;;5010693;28;20034;-57
2022/03/14 07:50:15;;;;;;;17.33;12.68;;;0.90;97.80;;;;;;5010343;28;21166;-57
2022/03/14 07:52:41;;;;;;;17.13;12.30;;;1.00;97.90;;;;;;5009429;28;20072;-56
2022/03/14 07:55:07;;;;;;;16.27;10.95;;;1.00;97.40;;;;;;5010498;28;20021;-57
2022/03/14 07:57:34;;;;;;;20.60;12.35;;;1.10;96.90;;;;;;5010777;28;20591;-55
2022/03/14 08:00:00;;;;;;;17.25;12.02;;;1.30;96.50;;;;;;5010063;28;20068;-58
2022/03/14 08:02:27;;;;;;;17.55;11.90;;;1.40;97.10;;;;;;5009950;28;20109;-58
2022/03/14 08:04:52;;;;;;;16.30;10.93;;;1.50;96.80;;;;;;5009866;28;20425;-58
2022/03/14 08:07:20;;;;;;;16.10;11.63;;;1.60;96.60;;;;;;5010469;28;20089;-58
2022/03/14 08:09:49;;;;;;;18.17;11.88;;;1.60;96.40;;;;;;5009169;28;20446;-58
2022/03/14 08:12:16;;;;;;;16.38;11.25;;;1.60;96.50;;;;;;5010061;28;20037;-55
2022/03/14 08:14:42;;;;;;;14.23;10.80;;;1.70;96.30;;;;;;5010275;28;20021;-55
2022/03/14 08:17:08;;;;;;;17.05;11.48;;;1.70;96.60;;;;;;5011321;28;20053;-56
2022/03/14 08:19:34;;;;;;;13.65;11.23;;;1.70;97.10;;;;;;4993049;28;20497;-56
2022/03/14 08:22:03;;;;;;;13.65;11.48;;;1.70;98.00;;;;;;5009209;28;20088;-56
2022/03/14 08:24:29;;;;;;;13.48;11.23;;;1.70;98.60;;;;;;5010103;28;20029;-57
2022/03/14 08:26:55;;;;;;;14.80;10.90;;;1.70;99.30;;;;;;5009649;28;20044;-58
2022/03/14 08:29:20;;;;;;;18.63;12.27;;;1.80;99.30;;;;;;5010736;28;20014;-56
2022/03/14 08:31:46;;;;;;;18.95;12.07;;;1.80;99.50;;;;;;5008373;28;20680;-59
2022/03/14 08:34:12;;;;;;;15.23;11.70;;;1.90;99.90;;;;;;5009599;28;20041;-57
2022/03/14 08:36:40;;;;;;;19.40;12.52;;;1.90;99.90;;;;;;5009356;28;20026;-58
2022/03/14 08:39:07;;;;;;;19.77;13.73;;;1.80;99.90;;;;;;5009003;28;20045;-56
2022/03/14 08:41:36;;;;;;;23.10;13.40;;;1.80;99.90;;;;;;5009590;28;20034;-56
2022/03/14 08:44:07;;;;;;;17.92;13.38;;;1.80;99.90;;;;;;5008615;28;20038;-57
2022/03/14 08:46:32;;;;;;;20.58;13.98;;;1.80;99.90;;;;;;5009748;28;20034;-57
2022/03/14 08:48:58;;;;;;;22.33;15.70;;;1.80;99.90;;;;;;5008238;28;20041;-58
2022/03/14 08:51:25;;;;;;;21.10;14.15;;;1.80;99.90;;;;;;5008585;28;20030;-58
2022/03/14 08:53:51;;;;;;;20.13;14.52;;;1.80;99.90;;;;;;5009861;28;20358;-57
2022/03/14 08:56:17;;;;;;;27.40;15.75;;;1.80;99.90;;;;;;5009695;28;20042;-56
2022/03/14 08:58:43;;;;;;;25.70;15.38;;;1.90;99.90;;;;;;5009604;28;20562;-56
2022/03/14 09:01:10;;;;;;;37.75;17.58;;;1.90;99.90;;;;;;5008462;28;20030;-57
2022/03/14 09:03:37;;;;;;;30.70;18.60;;;2.10;99.90;;;;;;5008637;28;20033;-60
2022/03/14 09:06:02;;;;;;;26.73;16.20;;;2.20;99.90;;;;;;5007654;28;20022;-56
2022/03/14 09:08:29;;;;;;;25.55;16.30;;;2.30;99.90;;;;;;5009734;28;20030;-58
2022/03/14 09:10:55;;;;;;;23.60;15.80;;;2.40;99.90;;;;;;5009083;28;20497;-57
2022/03/14 09:13:23;;;;;;;23.73;17.92;;;2.50;99.90;;;;;;4989128;28;20033;-58
2022/03/14 09:15:50;;;;;;;29.27;18.48;;;2.70;99.90;;;;;;5008478;28;20377;-56
2022/03/14 09:18:16;;;;;;;33.38;19.17;;;3.00;99.90;;;;;;5007583;28;20026;-58
2022/03/14 09:20:42;;;;;;;30.95;19.05;;;3.20;99.90;;;;;;5008479;28;20026;-57
2022/03/14 09:23:10;;;;;;;43.00;21.05;;;3.30;99.90;;;;;;5007946;28;20034;-60
2022/03/14 09:25:35;;;;;;;29.95;17.95;;;3.50;99.90;;;;;;5007794;28;20040;-57
2022/03/14 09:28:01;;;;;;;36.33;18.85;;;3.60;99.90;;;;;;5008485;28;20038;-56
2022/03/14 09:30:28;;;;;;;28.90;16.90;;;3.70;99.90;;;;;;5007420;28;20026;-57
2022/03/14 09:32:54;;;;;;;34.33;20.38;;;3.70;99.90;;;;;;5023402;28;20112;-58
2022/03/14 09:35:23;;;;;;;34.08;21.42;;;3.70;99.90;;;;;;5006917;28;20088;-57
2022/03/14 09:37:49;;;;;;;33.20;18.90;;;3.90;99.90;;;;;;5008524;28;20092;-59
2022/03/14 09:40:18;;;;;;;35.05;18.88;;;4.00;99.90;;;;;;5007437;28;20370;-56
2022/03/14 09:42:46;;;;;;;32.83;20.52;;;4.20;99.90;;;;;;5008166;28;20085;-57
2022/03/14 09:45:16;;;;;;;34.50;20.17;;;4.40;99.90;;;;;;5004903;28;20026;-58
2022/03/14 09:47:45;;;;;;;39.15;23.58;;;4.50;99.90;;;;;;5006563;28;20030;-56
2022/03/14 09:50:30;;;;;;;30.60;18.45;;;4.70;99.90;;;;;;5004058;28;20025;-60
2022/03/14 09:52:58;;;;;;;29.95;18.95;;;4.70;99.90;;;;;;5006717;28;20157;-60
2022/03/14 09:55:25;;;;;;;27.67;18.40;;;4.80;99.90;;;;;;5006569;28;20030;-56
2022/03/14 09:57:51;;;;;;;24.80;17.58;;;4.70;99.90;;;;;;5007047;28;20037;-57
2022/03/14 10:00:17;;;;;;;27.17;18.33;;;4.60;99.90;;;;;;5006248;28;20405;-59
2022/03/14 10:02:44;;;;;;;22.83;16.60;;;4.50;99.90;;;;;;5007869;28;20029;-57
2022/03/14 10:05:12;;;;;;;20.13;17.13;;;4.40;99.90;;;;;;5008457;28;20436;-60
2022/03/14 10:07:39;;;;;;;25.70;17.75;;;4.30;99.90;;;;;;5007516;28;20026;-60
2022/03/14 10:10:05;;;;;;;22.55;16.77;;;4.30;99.90;;;;;;5007630;28;20124;-57
2022/03/14 10:12:32;;;;;;;21.88;15.27;;;4.30;99.90;;;;;;5007115;28;20377;-56
2022/03/14 10:14:59;;;;;;;21.63;15.88;;;4.30;99.90;;;;;;5006895;28;20049;-60
2022/03/14 10:17:26;;;;;;;22.17;16.10;;;4.30;99.90;;;;;;5009193;28;20061;-58
2022/03/14 10:19:57;;;;;;;24.20;16.30;;;4.30;99.90;;;;;;5007778;28;20040;-59
2022/03/14 10:22:23;;;;;;;23.50;17.10;;;4.30;99.90;;;;;;5007792;28;20045;-57
2022/03/14 10:25:01;;;;;;;19.65;16.15;;;4.30;99.90;;;;;;5008001;28;20053;-58
2022/03/14 10:27:27;;;;;;;24.45;16.50;;;4.30;99.90;;;;;;5012451;28;20505;-57
2022/03/14 10:29:53;;;;;;;26.98;22.58;;;4.40;99.90;;;;;;5011870;28;20040;-57
2022/03/14 10:32:30;;;;;;;27.50;17.88;;;4.50;99.90;;;;;;5012059;28;20030;-59
2022/03/14 10:35:07;;;;;;;25.10;18.48;;;4.70;99.90;;;;;;5010992;28;20041;-57
2022/03/14 10:37:34;;;;;;;23.98;19.23;;;4.90;99.90;;;;;;5009114;28;20033;-58
2022/03/14 10:40:06;;;;;;;22.35;19.48;;;5.20;99.90;;;;;;5011430;28;20121;-61
2022/03/14 10:42:43;;;;;;;20.88;16.25;;;5.50;99.90;;;;;;5009865;28;20068;-57
2022/03/14 10:45:16;;;;;;;24.92;20.90;;;5.60;99.90;;;;;;5003824;28;20432;-60
2022/03/14 10:47:46;;;;;;;18.95;16.08;;;5.80;99.90;;;;;;5010206;28;20038;-57
2022/03/14 10:50:33;;;;;;;20.23;17.15;;;6.00;99.90;;;;;;5009929;28;20073;-57
2022/03/14 10:53:04;;;;;;;18.38;15.55;;;6.10;99.90;;;;;;5009908;28;20045;-57
2022/03/14 10:55:38;;;;;;;18.92;14.63;;;6.30;99.90;;;;;;5008976;28;20077;-58
2022/03/14 10:58:18;;;;;;;21.52;18.23;;;6.40;99.90;;;;;;4998879;28;20149;-58
2022/03/14 11:00:57;;;;;;;17.40;15.05;;;6.50;99.90;;;;;;5010111;28;20397;-56
2022/03/14 11:03:24;;;;;;;36.28;21.73;;;6.70;99.90;;;;;;5010989;28;20084;-60
2022/03/14 11:05:53;;;;;;;41.10;23.70;;;6.80;99.90;;;;;;5011382;28;20054;-57
2022/03/14 11:08:47;;;;;;;37.00;23.40;;;6.90;99.90;;;;;;5011892;28;20026;-56
2022/03/14 11:11:36;;;;;;;32.33;21.60;;;7.00;99.90;;;;;;5008772;28;20033;-59
2022/03/14 11:14:12;;;;;;;19.73;15.13;;;7.00;99.90;;;;;;5010591;28;20092;-58
2022/03/14 11:16:38;;;;;;;11.00;9.88;;;7.00;99.90;;;;;;5025229;28;20022;-57
2022/03/14 11:19:07;;;;;;;14.70;12.07;;;7.00;99.90;;;;;;5011192;28;20026;-60
2022/03/14 11:21:33;;;;;;;13.63;11.52;;;7.10;99.90;;;;;;5009743;28;20493;-58
2022/03/14 11:24:00;;;;;;;13.93;11.63;;;7.10;99.90;;;;;;5009373;28;20041;-59
2022/03/14 11:26:26;;;;;;;19.40;12.75;;;7.20;99.90;;;;;;5010430;28;20405;-61
2022/03/14 11:28:54;;;;;;;15.10;13.52;;;7.30;99.90;;;;;;5009888;28;20030;-57
2022/03/14 11:31:21;;;;;;;10.10;9.10;;;7.30;99.90;;;;;;5009888;28;20033;-60
2022/03/14 11:33:48;;;;;;;17.63;11.63;;;7.30;99.90;;;;;;5009527;28;20033;-59
2022/03/14 11:36:18;;;;;;;11.13;9.38;;;7.30;99.90;;;;;;5009100;28;20030;-57
2022/03/14 11:38:44;;;;;;;6.88;5.35;;;7.30;99.90;;;;;;5009693;28;20033;-60
2022/03/14 11:41:10;;;;;;;4.07;3.67;;;7.30;99.90;;;;;;5009800;28;20038;-57
2022/03/14 11:43:39;;;;;;;2.97;2.67;;;7.30;99.90;;;;;;5009858;28;20826;-57
2022/03/14 11:46:05;;;;;;;3.33;2.50;;;7.30;99.90;;;;;;5008791;28;20112;-60
2022/03/14 11:48:33;;;;;;;3.25;2.80;;;7.30;99.90;;;;;;5009326;28;20088;-60
2022/03/14 11:51:06;;;;;;;3.78;3.47;;;7.30;99.90;;;;;;5009783;28;20030;-59
2022/03/14 11:53:34;;;;;;;3.90;2.80;;;7.30;99.90;;;;;;5010818;28;20014;-57
2022/03/14 11:56:07;;;;;;;3.30;3.00;;;7.30;99.90;;;;;;5009365;28;20034;-56
2022/03/14 11:58:36;;;;;;;3.15;2.63;;;7.30;99.90;;;;;;5009743;28;20030;-60
2022/03/14 12:01:26;;;;;;;4.80;3.13;;;7.30;99.90;;;;;;5009085;28;20030;-57
2022/03/14 12:03:53;;;;;;;4.10;2.92;;;7.30;99.90;;;;;;5010079;28;20858;-57
2022/03/14 12:06:47;;;;;;;3.13;2.10;;;7.30;99.90;;;;;;5008577;28;20136;-58
2022/03/14 12:09:27;;;;;;;2.42;2.15;;;7.30;99.90;;;;;;5009308;28;20509;-58
2022/03/14 12:11:57;;;;;;;5.22;1.65;;;7.30;99.90;;;;;;5008645;28;20029;-59
2022/03/14 12:14:43;;;;;;;4.78;1.90;;;7.20;99.90;;;;;;5009941;28;20503;-60
2022/03/14 12:17:14;;;;;;;3.05;1.35;;;7.10;99.90;;;;;;5002270;28;20030;-57
2022/03/14 12:19:47;;;;;;;2.42;1.88;;;7.10;99.90;;;;;;5009178;28;20036;-58
2022/03/14 12:22:32;;;;;;;2.85;2.28;;;7.20;99.90;;;;;;5009432;28;20066;-57
2022/03/14 12:24:59;;;;;;;3.63;1.90;;;7.30;99.90;;;;;;5023838;28;20038;-58
2022/03/14 12:27:34;;;;;;;2.00;1.55;;;7.40;99.90;;;;;;5008994;28;20034;-59
2022/03/14 12:30:04;;;;;;;2.47;1.80;;;7.50;99.90;;;;;;5008879;28;20033;-60
2022/03/14 12:32:29;;;;;;;2.72;1.75;;;7.70;99.90;;;;;;5009994;28;20097;-58
2022/03/14 12:35:22;;;;;;;2.08;1.63;;;7.80;99.90;;;;;;5008801;28;20113;-56